Folk, Missouri
Current Conditions -  °F | °C
As of 8:53 AM on Sunday 23 Nov 2014 (Local Time) from KJEF Reporting Station
Overcast Overcast  
Wind Chill: 54°   Ceiling: 1100
Heat Index: 54°   Visibility: 9mi
Dew Point: 52°   Wind: 7mph
Humidity: 93%   Direction: 160°SSE
Pressure: 29.6"   Gusts: NA
Location:  38.4046°N, 92.0758°W
Report Text: KJEF 231453Z 16006KT 9SM BKN011 OVC065 12/11 A2960 RMK AO2 RAE36 SLP012 P0001 60016 T01220111 56018
Loading
Personal Weather Stations






























Interactive Weather Map New forecast layout! Learn more

10-Day Weather Forecast

Advertisements
Track Severe Weather on mobile